sensor_id;sensor_type;location;lat;lon;timestamp;pressure;altitude;pressure_sealevel;temperature;humidity
2711;BME280;20721;47.402;8.550;2023-07-24T00:01:21;95480;;;23.19;52.08
2711;BME280;20721;47.402;8.550;2023-07-24T00:03:21;95470;;;23.21;52.04
2711;BME280;20721;47.402;8.550;2023-07-24T00:05:21;95470;;;23.25;51.57
2711;BME280;20721;47.402;8.550;2023-07-24T00:07:21;95485;;;23.32;51.50
2711;BME280;20721;47.402;8.550;2023-07-24T00:09:21;95497;;;23.36;51.56
2711;BME280;20721;47.402;8.550;2023-07-24T00:11:21;95489;;;23.42;51.36
2711;BME280;20721;47.402;8.550;2023-07-24T00:13:21;95492;;;23.49;50.89
2711;BME280;20721;47.402;8.550;2023-07-24T00:15:21;95496;;;23.55;50.72
2711;BME280;20721;47.402;8.550;2023-07-24T00:17:21;95490;;;23.62;50.38
2711;BME280;20721;47.402;8.550;2023-07-24T00:19:21;95481;;;23.61;50.02
2711;BME280;20721;47.402;8.550;2023-07-24T00:21:21;95476;;;23.68;49.78
2711;BME280;20721;47.402;8.550;2023-07-24T00:23:21;95479;;;23.72;49.37
2711;BME280;20721;47.402;8.550;2023-07-24T00:26:21;95480;;;23.72;49.23
2711;BME280;20721;47.402;8.550;2023-07-24T00:28:21;95482;;;23.76;49.20
2711;BME280;20721;47.402;8.550;2023-07-24T00:32:21;95503;;;23.79;49.48
2711;BME280;20721;47.402;8.550;2023-07-24T00:37:21;95541;;;23.75;52.40
2711;BME280;20721;47.402;8.550;2023-07-24T00:39:21;95569;;;23.63;55.20
2711;BME280;20721;47.402;8.550;2023-07-24T00:41:21;95632;;;23.55;55.34
2711;BME280;20721;47.402;8.550;2023-07-24T00:43:21;95661;;;23.41;58.13
2711;BME280;20721;47.402;8.550;2023-07-24T00:45:21;95633;;;23.28;58.20
2711;BME280;20721;47.402;8.550;2023-07-24T00:47:21;95626;;;23.11;58.43
2711;BME280;20721;47.402;8.550;2023-07-24T00:49:21;95611;;;22.94;56.77
2711;BME280;20721;47.402;8.550;2023-07-24T00:51:21;95591;;;22.62;58.40
2711;BME280;20721;47.402;8.550;2023-07-24T00:53:21;95542;;;22.31;56.82
2711;BME280;20721;47.402;8.550;2023-07-24T00:55:21;95528;;;21.76;59.60
2711;BME280;20721;47.402;8.550;2023-07-24T00:57:21;95525;;;21.47;60.60
2711;BME280;20721;47.402;8.550;2023-07-24T00:59:21;95529;;;21.39;60.58
2711;BME280;20721;47.402;8.550;2023-07-24T01:01:21;95521;;;21.26;61.58
2711;BME280;20721;47.402;8.550;2023-07-24T01:03:21;95510;;;21.29;62.38
2711;BME280;20721;47.402;8.550;2023-07-24T01:05:21;95508;;;21.35;63.10
2711;BME280;20721;47.402;8.550;2023-07-24T01:07:21;95499;;;21.17;63.70
2711;BME280;20721;47.402;8.550;2023-07-24T01:09:21;95493;;;20.97;65.03
2711;BME280;20721;47.402;8.550;2023-07-24T01:11:26;95491;;;20.98;65.43
2711;BME280;20721;47.402;8.550;2023-07-24T01:13:22;95474;;;21.09;64.69
2711;BME280;20721;47.402;8.550;2023-07-24T01:15:24;95474;;;21.04;62.81
2711;BME280;20721;47.402;8.550;2023-07-24T01:17:23;95462;;;21.10;64.65
2711;BME280;20721;47.402;8.550;2023-07-24T01:19:31;95454;;;21.10;63.37
2711;BME280;20721;47.402;8.550;2023-07-24T01:21:23;95448;;;20.91;64.45
2711;BME280;20721;47.402;8.550;2023-07-24T01:25:36;95450;;;21.11;64.85
2711;BME280;20721;47.402;8.550;2023-07-24T01:27:24;95445;;;21.22;64.30
2711;BME280;20721;47.402;8.550;2023-07-24T01:29:21;95441;;;21.29;64.25
2711;BME280;20721;47.402;8.550;2023-07-24T01:31:21;95432;;;21.36;63.96
2711;BME280;20721;47.402;8.550;2023-07-24T01:33:21;95442;;;21.50;65.68
2711;BME280;20721;47.402;8.550;2023-07-24T01:35:21;95436;;;21.59;65.42
2711;BME280;20721;47.402;8.550;2023-07-24T01:37:21;95432;;;21.63;65.18
2711;BME280;20721;47.402;8.550;2023-07-24T01:39:21;95441;;;21.69;65.01
2711;BME280;20721;47.402;8.550;2023-07-24T01:41:21;95444;;;21.67;65.53
2711;BME280;20721;47.402;8.550;2023-07-24T01:43:21;95441;;;21.66;65.28
2711;BME280;20721;47.402;8.550;2023-07-24T01:45:21;95442;;;21.62;64.52
2711;BME280;20721;47.402;8.550;2023-07-24T01:47:21;95441;;;21.58;63.98
2711;BME280;20721;47.402;8.550;2023-07-24T01:49:21;95440;;;21.59;64.76
2711;BME280;20721;47.402;8.550;2023-07-24T01:51:21;95436;;;21.60;64.43
2711;BME280;20721;47.402;8.550;2023-07-24T01:53:21;95434;;;21.70;65.11
2711;BME280;20721;47.402;8.550;2023-07-24T01:55:21;95428;;;21.77;65.35
2711;BME280;20721;47.402;8.550;2023-07-24T01:57:21;95429;;;21.87;65.05
2711;BME280;20721;47.402;8.550;2023-07-24T01:59:21;95433;;;21.95;64.78
2711;BME280;20721;47.402;8.550;2023-07-24T02:01:21;95436;;;21.95;63.88
2711;BME280;20721;47.402;8.550;2023-07-24T02:03:21;95434;;;21.75;63.99
2711;BME280;20721;47.402;8.550;2023-07-24T02:05:21;95433;;;21.60;64.60
2711;BME280;20721;47.402;8.550;2023-07-24T02:07:21;95432;;;21.47;65.18
2711;BME280;20721;47.402;8.550;2023-07-24T02:11:21;95428;;;21.45;65.48
2711;BME280;20721;47.402;8.550;2023-07-24T02:13:21;95428;;;21.43;65.67
2711;BME280;20721;47.402;8.550;2023-07-24T02:16:21;95424;;;21.38;65.99
2711;BME280;20721;47.402;8.550;2023-07-24T02:21:21;95414;;;21.37;64.97
2711;BME280;20721;47.402;8.550;2023-07-24T02:23:21;95412;;;21.37;64.88
2711;BME280;20721;47.402;8.550;2023-07-24T02:25:21;95410;;;21.25;65.09
2711;BME280;20721;47.402;8.550;2023-07-24T02:27:25;95410;;;21.25;65.40
2711;BME280;20721;47.402;8.550;2023-07-24T02:29:22;95409;;;21.25;65.12
2711;BME280;20721;47.402;8.550;2023-07-24T02:32:22;95407;;;21.22;65.66
2711;BME280;20721;47.402;8.550;2023-07-24T02:34:24;95407;;;21.16;66.07
2711;BME280;20721;47.402;8.550;2023-07-24T02:36:21;95402;;;21.12;65.52
2711;BME280;20721;47.402;8.550;2023-07-24T02:38:21;95408;;;21.06;65.98
2711;BME280;20721;47.402;8.550;2023-07-24T02:40:21;95408;;;21.07;66.16
2711;BME280;20721;47.402;8.550;2023-07-24T02:43:21;95409;;;21.06;65.72
2711;BME280;20721;47.402;8.550;2023-07-24T02:45:21;95409;;;21.02;65.70
2711;BME280;20721;47.402;8.550;2023-07-24T02:47:21;95412;;;20.97;66.01
2711;BME280;20721;47.402;8.550;2023-07-24T02:49:21;95411;;;20.94;65.63
2711;BME280;20721;47.402;8.550;2023-07-24T02:51:21;95413;;;20.78;65.84
2711;BME280;20721;47.402;8.550;2023-07-24T02:53:21;95414;;;20.66;65.93
2711;BME280;20721;47.402;8.550;2023-07-24T02:55:21;95425;;;20.62;66.56
2711;BME280;20721;47.402;8.550;2023-07-24T02:57:21;95428;;;20.63;66.84
2711;BME280;20721;47.402;8.550;2023-07-24T02:59:21;95431;;;20.67;66.55
2711;BME280;20721;47.402;8.550;2023-07-24T03:01:21;95431;;;20.71;66.54
2711;BME280;20721;47.402;8.550;2023-07-24T03:03:21;95441;;;20.69;66.05
2711;BME280;20721;47.402;8.550;2023-07-24T03:05:21;95441;;;20.58;65.58
2711;BME280;20721;47.402;8.550;2023-07-24T03:07:21;95441;;;20.59;65.78
2711;BME280;20721;47.402;8.550;2023-07-24T03:09:21;95436;;;20.63;66.18
2711;BME280;20721;47.402;8.550;2023-07-24T03:12:21;95432;;;20.59;65.62
2711;BME280;20721;47.402;8.550;2023-07-24T03:14:21;95427;;;20.47;65.76
2711;BME280;20721;47.402;8.550;2023-07-24T03:16:21;95415;;;20.40;65.67
2711;BME280;20721;47.402;8.550;2023-07-24T03:18:21;95410;;;20.33;66.02
2711;BME280;20721;47.402;8.550;2023-07-24T03:20:21;95413;;;20.32;65.72
2711;BME280;20721;47.402;8.550;2023-07-24T03:22:21;95418;;;20.40;65.55
2711;BME280;20721;47.402;8.550;2023-07-24T03:24:21;95417;;;20.43;65.19
2711;BME280;20721;47.402;8.550;2023-07-24T03:26:21;95413;;;20.49;65.63
2711;BME280;20721;47.402;8.550;2023-07-24T03:28:21;95413;;;20.62;65.59
2711;BME280;20721;47.402;8.550;2023-07-24T03:30:21;95408;;;20.72;65.88
2711;BME280;20721;47.402;8.550;2023-07-24T03:32:21;95407;;;20.74;65.13
2711;BME280;20721;47.402;8.550;2023-07-24T03:34:21;95402;;;20.63;64.78
2711;BME280;20721;47.402;8.550;2023-07-24T03:36:24;95398;;;20.66;63.63
2711;BME280;20721;47.402;8.550;2023-07-24T03:38:21;95393;;;20.75;63.94
2711;BME280;20721;47.402;8.550;2023-07-24T03:40:21;95383;;;20.69;62.99
2711;BME280;20721;47.402;8.550;2023-07-24T03:42:25;95371;;;20.53;63.06
2711;BME280;20721;47.402;8.550;2023-07-24T03:44:21;95376;;;20.46;63.84
2711;BME280;20721;47.402;8.550;2023-07-24T03:46:21;95362;;;20.37;63.70
2711;BME280;20721;47.402;8.550;2023-07-24T03:48:21;95367;;;20.47;63.96
2711;BME280;20721;47.402;8.550;2023-07-24T03:50:21;95367;;;20.64;64.30
2711;BME280;20721;47.402;8.550;2023-07-24T03:52:21;95363;;;20.79;63.88
2711;BME280;20721;47.402;8.550;2023-07-24T03:54:21;95356;;;20.88;63.75
2711;BME280;20721;47.402;8.550;2023-07-24T03:56:21;95356;;;20.95;63.55
2711;BME280;20721;47.402;8.550;2023-07-24T03:58:21;95363;;;20.99;63.56
2711;BME280;20721;47.402;8.550;2023-07-24T04:00:21;95374;;;21.04;63.30
2711;BME280;20721;47.402;8.550;2023-07-24T04:02:21;95374;;;21.06;63.70
2711;BME280;20721;47.402;8.550;2023-07-24T04:04:21;95375;;;21.11;63.65
2711;BME280;20721;47.402;8.550;2023-07-24T04:06:21;95376;;;21.09;63.89
2711;BME280;20721;47.402;8.550;2023-07-24T04:08:21;95371;;;21.01;63.69
2711;BME280;20721;47.402;8.550;2023-07-24T04:11:21;95375;;;21.04;63.90
2711;BME280;20721;47.402;8.550;2023-07-24T04:14:21;95376;;;21.14;63.88
2711;BME280;20721;47.402;8.550;2023-07-24T04:16:21;95381;;;21.28;63.99
2711;BME280;20721;47.402;8.550;2023-07-24T04:19:21;95381;;;21.37;64.23
2711;BME280;20721;47.402;8.550;2023-07-24T04:21:22;95387;;;21.36;64.07
2711;BME280;20721;47.402;8.550;2023-07-24T04:24:21;95400;;;21.44;64.21
2711;BME280;20721;47.402;8.550;2023-07-24T04:26:21;95412;;;21.52;64.27
2711;BME280;20721;47.402;8.550;2023-07-24T04:28:21;95420;;;21.59;63.32
2711;BME280;20721;47.402;8.550;2023-07-24T04:30:21;95424;;;21.71;63.00
2711;BME280;20721;47.402;8.550;2023-07-24T04:32:21;95427;;;21.78;62.40
2711;BME280;20721;47.402;8.550;2023-07-24T04:34:21;95432;;;21.85;62.40
2711;BME280;20721;47.402;8.550;2023-07-24T04:36:21;95448;;;21.87;62.53
2711;BME280;20721;47.402;8.550;2023-07-24T04:38:21;95474;;;21.92;62.46
2711;BME280;20721;47.402;8.550;2023-07-24T04:41:21;95558;;;21.92;63.03
2711;BME280;20721;47.402;8.550;2023-07-24T04:43:21;95650;;;21.81;66.43
2711;BME280;20721;47.402;8.550;2023-07-24T04:45:24;95657;;;21.63;66.75
2711;BME280;20721;47.402;8.550;2023-07-24T04:47:21;95721;;;21.21;68.94
2711;BME280;20721;47.402;8.550;2023-07-24T04:49:21;95772;;;20.76;68.98
2711;BME280;20721;47.402;8.550;2023-07-24T04:51:21;95788;;;20.59;69.87
2711;BME280;20721;47.402;8.550;2023-07-24T04:53:21;95822;;;20.25;70.16
2711;BME280;20721;47.402;8.550;2023-07-24T04:55:22;95810;;;20.13;70.67
2711;BME280;20721;47.402;8.550;2023-07-24T04:57:21;95789;;;20.06;69.87
2711;BME280;20721;47.402;8.550;2023-07-24T04:59:21;95782;;;19.94;70.68
2711;BME280;20721;47.402;8.550;2023-07-24T05:01:21;95784;;;20.00;70.59
2711;BME280;20721;47.402;8.550;2023-07-24T05:03:21;95788;;;19.99;69.83
2711;BME280;20721;47.402;8.550;2023-07-24T05:05:21;95787;;;19.95;69.57
2711;BME280;20721;47.402;8.550;2023-07-24T05:09:21;95790;;;19.94;69.34
2711;BME280;20721;47.402;8.550;2023-07-24T05:11:21;95791;;;19.74;69.51
2711;BME280;20721;47.402;8.550;2023-07-24T05:13:21;95787;;;19.73;70.50
2711;BME280;20721;47.402;8.550;2023-07-24T05:15:22;95784;;;19.77;71.07
2711;BME280;20721;47.402;8.550;2023-07-24T05:17:21;95771;;;19.91;70.45
2711;BME280;20721;47.402;8.550;2023-07-24T05:19:21;95759;;;19.99;70.63
2711;BME280;20721;47.402;8.550;2023-07-24T05:21:21;95744;;;19.98;69.57
2711;BME280;20721;47.402;8.550;2023-07-24T05:23:21;95718;;;19.97;70.16
2711;BME280;20721;47.402;8.550;2023-07-24T05:25:21;95677;;;20.00;71.14
2711;BME280;20721;47.402;8.550;2023-07-24T05:27:21;95623;;;20.01;70.07
2711;BME280;20721;47.402;8.550;2023-07-24T05:29:21;95603;;;20.00;69.61
2711;BME280;20721;47.402;8.550;2023-07-24T05:31:21;95575;;;19.69;70.62
2711;BME280;20721;47.402;8.550;2023-07-24T05:33:21;95575;;;19.37;72.43
2711;BME280;20721;47.402;8.550;2023-07-24T05:35:21;95513;;;19.41;72.38
2711;BME280;20721;47.402;8.550;2023-07-24T05:37:21;95500;;;19.38;68.99
2711;BME280;20721;47.402;8.550;2023-07-24T05:39:21;95501;;;19.56;70.51
2711;BME280;20721;47.402;8.550;2023-07-24T05:41:21;95438;;;19.74;70.42
2711;BME280;20721;47.402;8.550;2023-07-24T05:43:21;95437;;;19.67;70.41
2711;BME280;20721;47.402;8.550;2023-07-24T05:45:22;95494;;;19.78;71.60
2711;BME280;20721;47.402;8.550;2023-07-24T05:47:21;95510;;;19.94;71.73
2711;BME280;20721;47.402;8.550;2023-07-24T05:49:21;95488;;;20.00;71.39
2711;BME280;20721;47.402;8.550;2023-07-24T05:51:22;95514;;;20.12;71.28
2711;BME280;20721;47.402;8.550;2023-07-24T05:53:22;95532;;;20.20;70.39
2711;BME280;20721;47.402;8.550;2023-07-24T05:55:21;95523;;;20.25;70.73
2711;BME280;20721;47.402;8.550;2023-07-24T05:57:21;95508;;;20.31;69.79
2711;BME280;20721;47.402;8.550;2023-07-24T05:59:21;95527;;;20.28;69.33
2711;BME280;20721;47.402;8.550;2023-07-24T06:01:21;95531;;;20.33;69.13
2711;BME280;20721;47.402;8.550;2023-07-24T06:03:22;95519;;;20.38;67.77
2711;BME280;20721;47.402;8.550;2023-07-24T06:05:21;95508;;;20.48;68.18
2711;BME280;20721;47.402;8.550;2023-07-24T06:07:22;95500;;;20.61;68.70
2711;BME280;20721;47.402;8.550;2023-07-24T06:09:22;95501;;;20.69;66.83
2711;BME280;20721;47.402;8.550;2023-07-24T06:11:22;95489;;;20.72;67.13
2711;BME280;20721;47.402;8.550;2023-07-24T06:13:21;95468;;;20.83;67.29
2711;BME280;20721;47.402;8.550;2023-07-24T06:15:21;95458;;;20.95;65.44
2711;BME280;20721;47.402;8.550;2023-07-24T06:17:22;95459;;;21.06;65.14
2711;BME280;20721;47.402;8.550;2023-07-24T06:19:21;95454;;;21.19;66.79
2711;BME280;20721;47.402;8.550;2023-07-24T06:21:21;95452;;;21.34;67.15
2711;BME280;20721;47.402;8.550;2023-07-24T06:23:22;95472;;;21.41;65.69
2711;BME280;20721;47.402;8.550;2023-07-24T06:25:22;95488;;;21.40;65.44
2711;BME280;20721;47.402;8.550;2023-07-24T06:27:22;95505;;;21.31;64.87
2711;BME280;20721;47.402;8.550;2023-07-24T06:29:22;95521;;;21.09;65.18
2711;BME280;20721;47.402;8.550;2023-07-24T06:31:22;95519;;;20.81;64.94
2711;BME280;20721;47.402;8.550;2023-07-24T06:33:22;95504;;;20.68;64.72
2711;BME280;20721;47.402;8.550;2023-07-24T06:36:22;95509;;;20.60;65.29
2711;BME280;20721;47.402;8.550;2023-07-24T06:38:22;95530;;;20.51;66.73
2711;BME280;20721;47.402;8.550;2023-07-24T06:40:22;95528;;;20.55;67.30
2711;BME280;20721;47.402;8.550;2023-07-24T06:42:22;95525;;;20.54;67.65
2711;BME280;20721;47.402;8.550;2023-07-24T06:44:22;95524;;;20.54;69.07
2711;BME280;20721;47.402;8.550;2023-07-24T06:46:22;95519;;;20.54;68.56
2711;BME280;20721;47.402;8.550;2023-07-24T06:48:22;95507;;;20.33;69.21
2711;BME280;20721;47.402;8.550;2023-07-24T06:50:22;95508;;;20.17;69.62
2711;BME280;20721;47.402;8.550;2023-07-24T06:52:22;95495;;;20.09;69.65
2711;BME280;20721;47.402;8.550;2023-07-24T06:54:22;95459;;;20.13;70.59
2711;BME280;20721;47.402;8.550;2023-07-24T06:56:22;95470;;;20.14;70.65
2711;BME280;20721;47.402;8.550;2023-07-24T06:58:22;95488;;;20.33;70.34
2711;BME280;20721;47.402;8.550;2023-07-24T07:00:22;95510;;;20.56;70.31
2711;BME280;20721;47.402;8.550;2023-07-24T07:02:22;95525;;;20.80;70.40
2711;BME280;20721;47.402;8.550;2023-07-24T07:04:22;95533;;;20.96;70.29
2711;BME280;20721;47.402;8.550;2023-07-24T07:06:25;95532;;;21.03;69.52
2711;BME280;20721;47.402;8.550;2023-07-24T07:08:22;95534;;;21.07;68.22
2711;BME280;20721;47.402;8.550;2023-07-24T07:10:22;95533;;;21.15;68.77
2711;BME280;20721;47.402;8.550;2023-07-24T07:12:22;95526;;;21.20;67.61
2711;BME280;20721;47.402;8.550;2023-07-24T07:14:22;95534;;;21.24;68.37
2711;BME280;20721;47.402;8.550;2023-07-24T07:16:22;95530;;;21.39;69.57
2711;BME280;20721;47.402;8.550;2023-07-24T07:18:22;95533;;;21.49;69.11
2711;BME280;20721;47.402;8.550;2023-07-24T07:20:22;95522;;;21.58;69.17
2711;BME280;20721;47.402;8.550;2023-07-24T07:22:22;95517;;;21.65;69.41
2711;BME280;20721;47.402;8.550;2023-07-24T07:24:22;95511;;;21.67;68.49
2711;BME280;20721;47.402;8.550;2023-07-24T07:26:22;95510;;;21.70;68.32
2711;BME280;20721;47.402;8.550;2023-07-24T07:28:22;95510;;;21.74;67.93
2711;BME280;20721;47.402;8.550;2023-07-24T07:30:22;95507;;;21.78;67.60
2711;BME280;20721;47.402;8.550;2023-07-24T07:32:22;95508;;;21.69;66.78
2711;BME280;20721;47.402;8.550;2023-07-24T07:34:22;95510;;;21.25;67.60
2711;BME280;20721;47.402;8.550;2023-07-24T07:36:22;95526;;;21.04;68.87
2711;BME280;20721;47.402;8.550;2023-07-24T07:38:22;95528;;;21.08;67.94
2711;BME280;20721;47.402;8.550;2023-07-24T07:40:23;95524;;;21.17;68.61
2711;BME280;20721;47.402;8.550;2023-07-24T07:42:22;95524;;;21.23;68.88
2711;BME280;20721;47.402;8.550;2023-07-24T07:44:22;95519;;;21.34;69.31
2711;BME280;20721;47.402;8.550;2023-07-24T07:46:22;95516;;;21.48;69.84
2711;BME280;20721;47.402;8.550;2023-07-24T07:48:22;95517;;;21.54;68.07
2711;BME280;20721;47.402;8.550;2023-07-24T07:50:22;95522;;;21.53;67.89
2711;BME280;20721;47.402;8.550;2023-07-24T07:52:22;95522;;;21.51;68.45
2711;BME280;20721;47.402;8.550;2023-07-24T07:54:22;95516;;;21.60;68.53
2711;BME280;20721;47.402;8.550;2023-07-24T07:56:22;95520;;;21.76;68.53
2711;BME280;20721;47.402;8.550;2023-07-24T07:58:22;95521;;;21.83;67.22
2711;BME280;20721;47.402;8.550;2023-07-24T08:00:22;95515;;;21.85;67.12
2711;BME280;20721;47.402;8.550;2023-07-24T08:02:22;95503;;;21.90;66.91
2711;BME280;20721;47.402;8.550;2023-07-24T08:04:22;95485;;;21.94;66.71
2711;BME280;20721;47.402;8.550;2023-07-24T08:06:22;95459;;;21.95;65.56
2711;BME280;20721;47.402;8.550;2023-07-24T08:08:22;95434;;;21.70;66.01
2711;BME280;20721;47.402;8.550;2023-07-24T08:10:22;95438;;;21.74;66.48
2711;BME280;20721;47.402;8.550;2023-07-24T08:12:22;95439;;;21.72;65.05
2711;BME280;20721;47.402;8.550;2023-07-24T08:14:22;95432;;;21.84;66.83
2711;BME280;20721;47.402;8.550;2023-07-24T08:16:22;95446;;;22.01;67.51
2711;BME280;20721;47.402;8.550;2023-07-24T08:18:22;95458;;;22.10;65.00
2711;BME280;20721;47.402;8.550;2023-07-24T08:20:22;95450;;;22.05;65.71
2711;BME280;20721;47.402;8.550;2023-07-24T08:22:22;95404;;;22.18;66.19
2711;BME280;20721;47.402;8.550;2023-07-24T08:24:22;95394;;;22.18;63.41
2711;BME280;20721;47.402;8.550;2023-07-24T08:26:24;95408;;;22.20;64.48
2711;BME280;20721;47.402;8.550;2023-07-24T08:28:22;95399;;;22.19;63.21
2711;BME280;20721;47.402;8.550;2023-07-24T08:30:22;95396;;;22.25;64.71
2711;BME280;20721;47.402;8.550;2023-07-24T08:32:22;95404;;;22.37;65.37
2711;BME280;20721;47.402;8.550;2023-07-24T08:34:22;95405;;;22.54;65.42
2711;BME280;20721;47.402;8.550;2023-07-24T08:36:22;95407;;;22.74;63.07
2711;BME280;20721;47.402;8.550;2023-07-24T08:38:24;95402;;;23.14;63.34
2711;BME280;20721;47.402;8.550;2023-07-24T08:40:22;95396;;;23.50;61.81
2711;BME280;20721;47.402;8.550;2023-07-24T08:42:22;95395;;;23.69;60.48
2711;BME280;20721;47.402;8.550;2023-07-24T08:44:24;95398;;;23.94;57.25
2711;BME280;20721;47.402;8.550;2023-07-24T08:46:22;95408;;;24.36;58.71
2711;BME280;20721;47.402;8.550;2023-07-24T08:48:22;95421;;;24.99;57.59
2711;BME280;20721;47.402;8.550;2023-07-24T08:50:22;95426;;;25.58;56.54
2711;BME280;20721;47.402;8.550;2023-07-24T08:52:32;95415;;;26.09;56.83
2711;BME280;20721;47.402;8.550;2023-07-24T08:54:22;95396;;;26.41;54.47
2711;BME280;20721;47.402;8.550;2023-07-24T08:56:22;95390;;;26.68;52.29
2711;BME280;20721;47.402;8.550;2023-07-24T08:58:22;95386;;;27.00;51.77
2711;BME280;20721;47.402;8.550;2023-07-24T09:00:22;95380;;;27.37;49.79
2711;BME280;20721;47.402;8.550;2023-07-24T09:02:22;95380;;;27.88;50.60
2711;BME280;20721;47.402;8.550;2023-07-24T09:04:22;95379;;;28.38;49.55
2711;BME280;20721;47.402;8.550;2023-07-24T09:06:22;95366;;;28.44;48.48
2711;BME280;20721;47.402;8.550;2023-07-24T09:10:25;95379;;;28.85;47.27
2711;BME280;20721;47.402;8.550;2023-07-24T09:12:23;95383;;;29.06;45.87
2711;BME280;20721;47.402;8.550;2023-07-24T09:14:23;95397;;;29.12;45.89
2711;BME280;20721;47.402;8.550;2023-07-24T09:16:23;95407;;;29.17;45.86
2711;BME280;20721;47.402;8.550;2023-07-24T09:18:22;95407;;;29.15;46.58
2711;BME280;20721;47.402;8.550;2023-07-24T09:20:37;95396;;;29.06;48.04
2711;BME280;20721;47.402;8.550;2023-07-24T09:22:23;95384;;;29.03;44.38
2711;BME280;20721;47.402;8.550;2023-07-24T09:24:22;95376;;;28.97;45.51
2711;BME280;20721;47.402;8.550;2023-07-24T09:26:22;95367;;;28.80;47.35
2711;BME280;20721;47.402;8.550;2023-07-24T09:28:22;95364;;;28.66;45.91
2711;BME280;20721;47.402;8.550;2023-07-24T09:30:23;95368;;;28.56;44.65
2711;BME280;20721;47.402;8.550;2023-07-24T09:32:23;95371;;;28.40;45.12
2711;BME280;20721;47.402;8.550;2023-07-24T09:34:22;95366;;;28.22;45.24
2711;BME280;20721;47.402;8.550;2023-07-24T09:36:22;95354;;;27.95;46.31
2711;BME280;20721;47.402;8.550;2023-07-24T09:38:22;95356;;;27.67;47.40
2711;BME280;20721;47.402;8.550;2023-07-24T09:40:22;95361;;;27.40;47.82
2711;BME280;20721;47.402;8.550;2023-07-24T09:42:30;95362;;;27.15;48.43
2711;BME280;20721;47.402;8.550;2023-07-24T09:44:24;95366;;;27.01;50.93
2711;BME280;20721;47.402;8.550;2023-07-24T09:46:30;95357;;;26.89;52.24
2711;BME280;20721;47.402;8.550;2023-07-24T09:48:33;95359;;;26.66;51.46
2711;BME280;20721;47.402;8.550;2023-07-24T09:50:22;95354;;;26.51;52.10
2711;BME280;20721;47.402;8.550;2023-07-24T09:52:23;95347;;;26.38;52.48
2711;BME280;20721;47.402;8.550;2023-07-24T09:54:24;95346;;;26.36;53.08
2711;BME280;20721;47.402;8.550;2023-07-24T09:56:33;95347;;;26.39;53.80
2711;BME280;20721;47.402;8.550;2023-07-24T09:58:23;95351;;;26.42;53.87
2711;BME280;20721;47.402;8.550;2023-07-24T10:01:22;95374;;;26.37;52.81
2711;BME280;20721;47.402;8.550;2023-07-24T10:03:22;95389;;;26.28;54.08
2711;BME280;20721;47.402;8.550;2023-07-24T10:05:22;95402;;;26.17;52.99
2711;BME280;20721;47.402;8.550;2023-07-24T10:07:22;95414;;;26.03;53.03
2711;BME280;20721;47.402;8.550;2023-07-24T10:09:23;95423;;;25.91;53.74
2711;BME280;20721;47.402;8.550;2023-07-24T10:11:22;95427;;;25.82;54.19
2711;BME280;20721;47.402;8.550;2023-07-24T10:13:22;95421;;;25.72;54.68
2711;BME280;20721;47.402;8.550;2023-07-24T10:15:22;95422;;;25.61;56.05
2711;BME280;20721;47.402;8.550;2023-07-24T10:17:38;95421;;;25.56;56.71
2711;BME280;20721;47.402;8.550;2023-07-24T10:19:22;95414;;;25.74;57.73
2711;BME280;20721;47.402;8.550;2023-07-24T10:21:26;95412;;;26.05;57.58
2711;BME280;20721;47.402;8.550;2023-07-24T10:23:22;95410;;;26.25;55.33
2711;BME280;20721;47.402;8.550;2023-07-24T10:25:28;95409;;;26.69;55.54
2711;BME280;20721;47.402;8.550;2023-07-24T10:27:24;95399;;;27.08;53.49
2711;BME280;20721;47.402;8.550;2023-07-24T10:29:24;95388;;;27.33;51.67
2711;BME280;20721;47.402;8.550;2023-07-24T10:31:23;95366;;;27.42;51.17
2711;BME280;20721;47.402;8.550;2023-07-24T10:33:22;95352;;;27.30;49.69
2711;BME280;20721;47.402;8.550;2023-07-24T10:35:24;95358;;;27.04;50.27
2711;BME280;20721;47.402;8.550;2023-07-24T10:37:30;95381;;;26.77;51.78
2711;BME280;20721;47.402;8.550;2023-07-24T10:39:22;95409;;;26.51;52.48
2711;BME280;20721;47.402;8.550;2023-07-24T10:41:22;95440;;;26.28;53.81
2711;BME280;20721;47.402;8.550;2023-07-24T10:43:22;95391;;;26.07;54.20
2711;BME280;20721;47.402;8.550;2023-07-24T10:45:22;95374;;;25.88;51.70
2711;BME280;20721;47.402;8.550;2023-07-24T10:47:22;95389;;;25.79;53.53
2711;BME280;20721;47.402;8.550;2023-07-24T10:49:22;95411;;;25.75;52.66
2711;BME280;20721;47.402;8.550;2023-07-24T10:51:22;95462;;;25.71;53.26
2711;BME280;20721;47.402;8.550;2023-07-24T10:54:22;95382;;;25.65;54.00
2711;BME280;20721;47.402;8.550;2023-07-24T10:57:26;95376;;;25.58;51.99
2711;BME280;20721;47.402;8.550;2023-07-24T10:59:22;95452;;;25.53;52.81
2711;BME280;20721;47.402;8.550;2023-07-24T11:01:22;95529;;;25.54;53.87
2711;BME280;20721;47.402;8.550;2023-07-24T11:03:23;95568;;;25.44;54.52
2711;BME280;20721;47.402;8.550;2023-07-24T11:05:22;95668;;;25.25;56.42
2711;BME280;20721;47.402;8.550;2023-07-24T11:07:22;95763;;;24.52;59.26
2711;BME280;20721;47.402;8.550;2023-07-24T11:09:22;95660;;;23.39;60.45
2711;BME280;20721;47.402;8.550;2023-07-24T11:11:31;95573;;;23.10;61.25
2711;BME280;20721;47.402;8.550;2023-07-24T11:13:23;95531;;;23.37;64.45
2711;BME280;20721;47.402;8.550;2023-07-24T11:15:24;95535;;;23.78;63.77
2711;BME280;20721;47.402;8.550;2023-07-24T11:17:22;95549;;;24.20;65.02
2711;BME280;20721;47.402;8.550;2023-07-24T11:19:24;95549;;;24.54;62.16
2711;BME280;20721;47.402;8.550;2023-07-24T11:21:22;95548;;;24.81;60.30
2711;BME280;20721;47.402;8.550;2023-07-24T11:23:23;95545;;;24.61;57.14
2711;BME280;20721;47.402;8.550;2023-07-24T11:25:22;95545;;;24.32;58.58
2711;BME280;20721;47.402;8.550;2023-07-24T11:27:22;95534;;;24.01;58.91
2711;BME280;20721;47.402;8.550;2023-07-24T11:29:23;95525;;;23.49;59.83
2711;BME280;20721;47.402;8.550;2023-07-24T11:31:23;95524;;;23.29;59.28
2711;BME280;20721;47.402;8.550;2023-07-24T11:33:22;95524;;;23.04;60.51
2711;BME280;20721;47.402;8.550;2023-07-24T11:35:22;95520;;;22.84;60.34
2711;BME280;20721;47.402;8.550;2023-07-24T11:37:22;95525;;;22.77;61.24
2711;BME280;20721;47.402;8.550;2023-07-24T11:39:23;95526;;;22.67;62.39
2711;BME280;20721;47.402;8.550;2023-07-24T11:41:22;95526;;;22.33;61.24